sensor_id;sensor_type;location;lat;lon;timestamp;P1;durP1;ratioP1;P2;durP2;ratioP2
23384;SDS011;11865;45.394;10.978;2024-01-07T00:00:42;9.93;;;2.17;;
23384;SDS011;11865;45.394;10.978;2024-01-07T00:03:10;2.47;;;2.38;;
23384;SDS011;11865;45.394;10.978;2024-01-07T00:05:38;4.35;;;4.05;;
23384;SDS011;11865;45.394;10.978;2024-01-07T00:08:05;3.83;;;3.20;;
23384;SDS011;11865;45.394;10.978;2024-01-07T00:10:33;1.52;;;1.42;;
23384;SDS011;11865;45.394;10.978;2024-01-07T00:13:01;16.45;;;4.53;;
23384;SDS011;11865;45.394;10.978;2024-01-07T00:15:30;3.70;;;3.20;;
23384;SDS011;11865;45.394;10.978;2024-01-07T00:17:58;16.48;;;3.03;;
23384;SDS011;11865;45.394;10.978;2024-01-07T00:20:26;1.83;;;1.73;;
23384;SDS011;11865;45.394;10.978;2024-01-07T00:22:53;2.78;;;2.58;;
23384;SDS011;11865;45.394;10.978;2024-01-07T00:25:21;1.70;;;1.60;;
23384;SDS011;11865;45.394;10.978;2024-01-07T00:27:49;4.72;;;3.15;;
23384;SDS011;11865;45.394;10.978;2024-01-07T00:30:18;4.88;;;4.47;;
23384;SDS011;11865;45.394;10.978;2024-01-07T00:32:46;7.10;;;5.80;;
23384;SDS011;11865;45.394;10.978;2024-01-07T00:35:14;2.92;;;2.72;;
23384;SDS011;11865;45.394;10.978;2024-01-07T00:37:41;6.25;;;1.98;;
23384;SDS011;11865;45.394;10.978;2024-01-07T00:40:09;0.38;;;0.38;;
23384;SDS011;11865;45.394;10.978;2024-01-07T00:42:37;3.08;;;2.83;;
23384;SDS011;11865;45.394;10.978;2024-01-07T00:45:05;0.20;;;0.20;;
23384;SDS011;11865;45.394;10.978;2024-01-07T00:47:33;1.50;;;1.42;;
23384;SDS011;11865;45.394;10.978;2024-01-07T00:50:01;1.08;;;1.08;;
23384;SDS011;11865;45.394;10.978;2024-01-07T00:52:28;3.40;;;2.50;;
23384;SDS011;11865;45.394;10.978;2024-01-07T00:54:56;1.98;;;1.88;;
23384;SDS011;11865;45.394;10.978;2024-01-07T00:57:24;1.30;;;1.25;;
23384;SDS011;11865;45.394;10.978;2024-01-07T00:59:51;4.97;;;3.70;;
23384;SDS011;11865;45.394;10.978;2024-01-07T01:02:19;2.42;;;1.85;;
23384;SDS011;11865;45.394;10.978;2024-01-07T01:04:46;1.88;;;1.75;;
23384;SDS011;11865;45.394;10.978;2024-01-07T01:07:14;2.60;;;2.40;;
23384;SDS011;11865;45.394;10.978;2024-01-07T01:09:43;1.58;;;1.48;;
23384;SDS011;11865;45.394;10.978;2024-01-07T01:12:11;0.95;;;0.95;;
23384;SDS011;11865;45.394;10.978;2024-01-07T01:14:38;1.85;;;1.50;;
23384;SDS011;11865;45.394;10.978;2024-01-07T01:17:06;0.13;;;0.13;;
23384;SDS011;11865;45.394;10.978;2024-01-07T01:19:33;4.60;;;2.33;;
23384;SDS011;11865;45.394;10.978;2024-01-07T01:22:01;1.45;;;1.35;;
23384;SDS011;11865;45.394;10.978;2024-01-07T01:24:29;0.95;;;0.93;;
23384;SDS011;11865;45.394;10.978;2024-01-07T01:26:57;2.03;;;1.85;;
23384;SDS011;11865;45.394;10.978;2024-01-07T01:29:24;1.48;;;1.30;;
23384;SDS011;11865;45.394;10.978;2024-01-07T01:31:52;0.75;;;0.75;;
23384;SDS011;11865;45.394;10.978;2024-01-07T01:34:19;2.03;;;1.70;;
23384;SDS011;11865;45.394;10.978;2024-01-07T01:36:47;0.47;;;0.47;;
23384;SDS011;11865;45.394;10.978;2024-01-07T01:39:15;3.10;;;2.72;;
23384;SDS011;11865;45.394;10.978;2024-01-07T01:41:42;1.77;;;1.67;;
23384;SDS011;11865;45.394;10.978;2024-01-07T01:44:10;0.75;;;0.75;;
23384;SDS011;11865;45.394;10.978;2024-01-07T01:46:37;3.22;;;2.97;;
23384;SDS011;11865;45.394;10.978;2024-01-07T01:49:06;3.80;;;1.23;;
23384;SDS011;11865;45.394;10.978;2024-01-07T01:51:35;4.60;;;1.80;;
23384;SDS011;11865;45.394;10.978;2024-01-07T01:54:03;0.32;;;0.32;;
23384;SDS011;11865;45.394;10.978;2024-01-07T01:56:31;0.85;;;0.85;;
23384;SDS011;11865;45.394;10.978;2024-01-07T01:58:59;0.43;;;0.43;;
23384;SDS011;11865;45.394;10.978;2024-01-07T02:01:27;2.22;;;2.03;;
23384;SDS011;11865;45.394;10.978;2024-01-07T02:03:56;2.33;;;2.13;;
23384;SDS011;11865;45.394;10.978;2024-01-07T02:06:24;2.80;;;2.13;;
23384;SDS011;11865;45.394;10.978;2024-01-07T02:08:53;0.88;;;0.88;;
23384;SDS011;11865;45.394;10.978;2024-01-07T02:11:22;1.80;;;1.70;;
23384;SDS011;11865;45.394;10.978;2024-01-07T02:13:50;17.38;;;4.75;;
23384;SDS011;11865;45.394;10.978;2024-01-07T02:16:17;2.42;;;2.22;;
23384;SDS011;11865;45.394;10.978;2024-01-07T02:18:45;5.93;;;3.97;;
23384;SDS011;11865;45.394;10.978;2024-01-07T02:21:13;2.20;;;2.10;;
23384;SDS011;11865;45.394;10.978;2024-01-07T02:23:42;3.40;;;2.72;;
23384;SDS011;11865;45.394;10.978;2024-01-07T02:26:09;4.72;;;2.80;;
23384;SDS011;11865;45.394;10.978;2024-01-07T02:28:37;3.25;;;2.95;;
23384;SDS011;11865;45.394;10.978;2024-01-07T02:31:04;2.00;;;1.90;;
23384;SDS011;11865;45.394;10.978;2024-01-07T02:33:32;0.32;;;0.32;;
23384;SDS011;11865;45.394;10.978;2024-01-07T02:36:00;0.35;;;0.35;;
23384;SDS011;11865;45.394;10.978;2024-01-07T02:38:28;2.40;;;1.98;;
23384;SDS011;11865;45.394;10.978;2024-01-07T02:40:55;0.38;;;0.38;;
23384;SDS011;11865;45.394;10.978;2024-01-07T02:43:23;0.65;;;0.57;;
23384;SDS011;11865;45.394;10.978;2024-01-07T02:45:50;1.23;;;1.13;;
23384;SDS011;11865;45.394;10.978;2024-01-07T02:48:18;0.00;;;0.00;;
23384;SDS011;11865;45.394;10.978;2024-01-07T02:50:46;4.03;;;2.72;;
23384;SDS011;11865;45.394;10.978;2024-01-07T02:53:13;0.30;;;0.30;;
23384;SDS011;11865;45.394;10.978;2024-01-07T02:55:41;9.35;;;4.90;;
23384;SDS011;11865;45.394;10.978;2024-01-07T02:58:09;0.13;;;0.13;;
23384;SDS011;11865;45.394;10.978;2024-01-07T03:00:36;0.20;;;0.20;;
23384;SDS011;11865;45.394;10.978;2024-01-07T03:03:04;3.63;;;2.35;;
23384;SDS011;11865;45.394;10.978;2024-01-07T03:05:31;0.45;;;0.38;;
23384;SDS011;11865;45.394;10.978;2024-01-07T03:08:00;1.65;;;1.35;;
23384;SDS011;11865;45.394;10.978;2024-01-07T03:10:27;0.20;;;0.20;;
23384;SDS011;11865;45.394;10.978;2024-01-07T03:12:55;0.10;;;0.10;;
23384;SDS011;11865;45.394;10.978;2024-01-07T03:15:22;0.68;;;0.68;;
23384;SDS011;11865;45.394;10.978;2024-01-07T03:17:50;0.00;;;0.00;;
23384;SDS011;11865;45.394;10.978;2024-01-07T03:20:18;0.00;;;0.00;;
23384;SDS011;11865;45.394;10.978;2024-01-07T03:22:45;0.00;;;0.00;;
23384;SDS011;11865;45.394;10.978;2024-01-07T03:25:13;1.38;;;1.27;;
23384;SDS011;11865;45.394;10.978;2024-01-07T03:27:40;0.22;;;0.22;;
23384;SDS011;11865;45.394;10.978;2024-01-07T03:30:09;0.00;;;0.00;;
23384;SDS011;11865;45.394;10.978;2024-01-07T03:32:37;0.00;;;0.00;;
23384;SDS011;11865;45.394;10.978;2024-01-07T03:35:05;0.00;;;0.00;;
23384;SDS011;11865;45.394;10.978;2024-01-07T03:37:34;0.00;;;0.00;;
23384;SDS011;11865;45.394;10.978;2024-01-07T03:40:02;1.13;;;1.02;;
23384;SDS011;11865;45.394;10.978;2024-01-07T03:42:30;2.95;;;1.15;;
23384;SDS011;11865;45.394;10.978;2024-01-07T03:44:58;0.00;;;0.00;;
23384;SDS011;11865;45.394;10.978;2024-01-07T03:47:25;0.00;;;0.00;;
23384;SDS011;11865;45.394;10.978;2024-01-07T03:49:53;1.63;;;1.15;;
23384;SDS011;11865;45.394;10.978;2024-01-07T03:52:21;2.15;;;1.23;;
23384;SDS011;11865;45.394;10.978;2024-01-07T03:54:48;2.30;;;1.50;;
23384;SDS011;11865;45.394;10.978;2024-01-07T03:57:16;3.47;;;2.13;;
23384;SDS011;11865;45.394;10.978;2024-01-07T03:59:44;4.03;;;2.70;;
23384;SDS011;11865;45.394;10.978;2024-01-07T04:02:11;3.83;;;2.72;;
23384;SDS011;11865;45.394;10.978;2024-01-07T04:04:39;5.05;;;2.88;;
23384;SDS011;11865;45.394;10.978;2024-01-07T04:07:06;6.47;;;3.20;;
23384;SDS011;11865;45.394;10.978;2024-01-07T04:09:34;5.88;;;3.20;;
23384;SDS011;11865;45.394;10.978;2024-01-07T04:12:02;8.10;;;2.65;;
23384;SDS011;11865;45.394;10.978;2024-01-07T04:14:29;4.60;;;2.40;;
23384;SDS011;11865;45.394;10.978;2024-01-07T04:17:00;3.53;;;2.35;;
23384;SDS011;11865;45.394;10.978;2024-01-07T04:19:28;3.97;;;2.22;;
23384;SDS011;11865;45.394;10.978;2024-01-07T04:21:56;6.15;;;2.53;;
23384;SDS011;11865;45.394;10.978;2024-01-07T04:24:24;3.85;;;2.35;;
23384;SDS011;11865;45.394;10.978;2024-01-07T04:26:51;8.60;;;2.30;;
23384;SDS011;11865;45.394;10.978;2024-01-07T04:29:19;5.55;;;2.53;;
23384;SDS011;11865;45.394;10.978;2024-01-07T04:31:46;4.57;;;2.60;;
23384;SDS011;11865;45.394;10.978;2024-01-07T04:34:14;3.75;;;2.22;;
23384;SDS011;11865;45.394;10.978;2024-01-07T04:36:42;7.32;;;2.83;;
23384;SDS011;11865;45.394;10.978;2024-01-07T04:39:09;3.63;;;2.15;;
23384;SDS011;11865;45.394;10.978;2024-01-07T04:41:37;3.05;;;2.30;;
23384;SDS011;11865;45.394;10.978;2024-01-07T04:44:04;4.03;;;2.30;;
23384;SDS011;11865;45.394;10.978;2024-01-07T04:46:38;5.53;;;2.88;;
23384;SDS011;11865;45.394;10.978;2024-01-07T04:49:06;3.42;;;2.40;;
23384;SDS011;11865;45.394;10.978;2024-01-07T04:51:34;5.03;;;2.88;;
23384;SDS011;11865;45.394;10.978;2024-01-07T04:54:03;4.10;;;2.92;;
23384;SDS011;11865;45.394;10.978;2024-01-07T04:56:33;5.85;;;2.83;;
23384;SDS011;11865;45.394;10.978;2024-01-07T04:59:00;3.67;;;2.10;;
23384;SDS011;11865;45.394;10.978;2024-01-07T05:01:28;5.53;;;2.15;;
23384;SDS011;11865;45.394;10.978;2024-01-07T05:03:57;3.22;;;1.90;;
23384;SDS011;11865;45.394;10.978;2024-01-07T05:06:24;3.55;;;2.00;;
23384;SDS011;11865;45.394;10.978;2024-01-07T05:08:52;4.05;;;1.90;;
23384;SDS011;11865;45.394;10.978;2024-01-07T05:11:19;4.18;;;1.70;;
23384;SDS011;11865;45.394;10.978;2024-01-07T05:13:47;3.03;;;1.48;;
23384;SDS011;11865;45.394;10.978;2024-01-07T05:16:20;1.60;;;1.20;;
23384;SDS011;11865;45.394;10.978;2024-01-07T05:18:48;3.10;;;1.52;;
23384;SDS011;11865;45.394;10.978;2024-01-07T05:21:19;2.15;;;1.27;;
23384;SDS011;11865;45.394;10.978;2024-01-07T05:23:47;3.72;;;1.60;;
23384;SDS011;11865;45.394;10.978;2024-01-07T05:26:15;3.15;;;1.30;;
23384;SDS011;11865;45.394;10.978;2024-01-07T05:28:42;3.63;;;1.30;;
23384;SDS011;11865;45.394;10.978;2024-01-07T05:31:16;4.25;;;1.92;;
23384;SDS011;11865;45.394;10.978;2024-01-07T05:33:45;8.63;;;5.18;;
23384;SDS011;11865;45.394;10.978;2024-01-07T05:36:13;3.03;;;1.65;;
23384;SDS011;11865;45.394;10.978;2024-01-07T05:38:41;2.05;;;1.20;;
23384;SDS011;11865;45.394;10.978;2024-01-07T05:41:09;2.15;;;1.40;;
23384;SDS011;11865;45.394;10.978;2024-01-07T05:43:37;1.77;;;1.30;;
23384;SDS011;11865;45.394;10.978;2024-01-07T05:46:04;1.00;;;0.73;;
23384;SDS011;11865;45.394;10.978;2024-01-07T05:48:45;1.58;;;0.88;;
23384;SDS011;11865;45.394;10.978;2024-01-07T05:51:15;1.20;;;0.75;;
23384;SDS011;11865;45.394;10.978;2024-01-07T05:53:44;1.40;;;0.73;;
23384;SDS011;11865;45.394;10.978;2024-01-07T05:56:12;1.58;;;0.80;;
23384;SDS011;11865;45.394;10.978;2024-01-07T05:58:40;2.40;;;0.82;;
23384;SDS011;11865;45.394;10.978;2024-01-07T06:01:08;2.05;;;0.90;;
23384;SDS011;11865;45.394;10.978;2024-01-07T06:03:36;3.40;;;0.90;;
23384;SDS011;11865;45.394;10.978;2024-01-07T06:06:04;0.55;;;0.50;;
23384;SDS011;11865;45.394;10.978;2024-01-07T06:08:31;3.72;;;0.93;;
23384;SDS011;11865;45.394;10.978;2024-01-07T06:10:59;1.67;;;0.80;;
23384;SDS011;11865;45.394;10.978;2024-01-07T06:13:27;1.60;;;0.80;;
23384;SDS011;11865;45.394;10.978;2024-01-07T06:15:54;1.23;;;0.80;;
23384;SDS011;11865;45.394;10.978;2024-01-07T06:18:22;1.08;;;0.68;;
23384;SDS011;11865;45.394;10.978;2024-01-07T06:20:50;1.35;;;0.90;;
23384;SDS011;11865;45.394;10.978;2024-01-07T06:23:18;3.30;;;0.60;;
23384;SDS011;11865;45.394;10.978;2024-01-07T06:25:45;2.33;;;0.70;;
23384;SDS011;11865;45.394;10.978;2024-01-07T06:28:13;1.02;;;0.70;;
23384;SDS011;11865;45.394;10.978;2024-01-07T06:30:40;1.00;;;0.73;;
23384;SDS011;11865;45.394;10.978;2024-01-07T06:33:08;0.63;;;0.63;;
23384;SDS011;11865;45.394;10.978;2024-01-07T06:35:36;3.13;;;0.50;;
23384;SDS011;11865;45.394;10.978;2024-01-07T06:38:03;1.02;;;0.90;;
23384;SDS011;11865;45.394;10.978;2024-01-07T06:40:31;3.35;;;0.90;;
23384;SDS011;11865;45.394;10.978;2024-01-07T06:42:59;1.52;;;1.00;;
23384;SDS011;11865;45.394;10.978;2024-01-07T06:45:27;1.40;;;0.98;;
23384;SDS011;11865;45.394;10.978;2024-01-07T06:47:54;1.13;;;1.00;;
23384;SDS011;11865;45.394;10.978;2024-01-07T06:50:22;1.65;;;1.05;;
23384;SDS011;11865;45.394;10.978;2024-01-07T06:52:50;1.33;;;1.20;;
23384;SDS011;11865;45.394;10.978;2024-01-07T06:55:18;1.55;;;1.00;;
23384;SDS011;11865;45.394;10.978;2024-01-07T06:57:45;2.15;;;1.20;;
23384;SDS011;11865;45.394;10.978;2024-01-07T07:00:13;2.45;;;0.90;;
23384;SDS011;11865;45.394;10.978;2024-01-07T07:02:41;1.15;;;1.00;;
23384;SDS011;11865;45.394;10.978;2024-01-07T07:05:08;2.58;;;1.00;;
23384;SDS011;11865;45.394;10.978;2024-01-07T07:07:36;2.72;;;1.45;;
23384;SDS011;11865;45.394;10.978;2024-01-07T07:10:04;2.50;;;1.50;;
23384;SDS011;11865;45.394;10.978;2024-01-07T07:12:33;3.90;;;1.83;;
23384;SDS011;11865;45.394;10.978;2024-01-07T07:15:01;2.28;;;1.73;;
23384;SDS011;11865;45.394;10.978;2024-01-07T07:17:28;2.65;;;1.63;;
23384;SDS011;11865;45.394;10.978;2024-01-07T07:19:56;3.95;;;2.03;;
23384;SDS011;11865;45.394;10.978;2024-01-07T07:22:24;3.15;;;2.50;;
23384;SDS011;11865;45.394;10.978;2024-01-07T07:24:51;4.65;;;2.13;;
23384;SDS011;11865;45.394;10.978;2024-01-07T07:27:19;3.15;;;2.50;;
23384;SDS011;11865;45.394;10.978;2024-01-07T07:29:46;4.68;;;2.30;;
23384;SDS011;11865;45.394;10.978;2024-01-07T07:32:14;6.80;;;3.47;;
23384;SDS011;11865;45.394;10.978;2024-01-07T07:34:41;5.22;;;3.15;;
23384;SDS011;11865;45.394;10.978;2024-01-07T07:37:09;3.97;;;2.13;;
23384;SDS011;11865;45.394;10.978;2024-01-07T07:39:37;5.53;;;3.05;;
23384;SDS011;11865;45.394;10.978;2024-01-07T07:42:04;2.20;;;1.42;;
23384;SDS011;11865;45.394;10.978;2024-01-07T07:44:32;2.20;;;1.63;;
23384;SDS011;11865;45.394;10.978;2024-01-07T07:47:00;2.30;;;1.60;;
23384;SDS011;11865;45.394;10.978;2024-01-07T07:49:28;3.08;;;2.10;;
23384;SDS011;11865;45.394;10.978;2024-01-07T07:51:56;2.60;;;2.00;;
23384;SDS011;11865;45.394;10.978;2024-01-07T07:54:24;10.90;;;6.25;;
23384;SDS011;11865;45.394;10.978;2024-01-07T07:56:51;5.95;;;2.95;;
23384;SDS011;11865;45.394;10.978;2024-01-07T07:59:19;6.90;;;2.78;;
23384;SDS011;11865;45.394;10.978;2024-01-07T08:01:47;6.20;;;2.42;;
23384;SDS011;11865;45.394;10.978;2024-01-07T08:04:14;4.28;;;1.95;;
23384;SDS011;11865;45.394;10.978;2024-01-07T08:06:42;4.07;;;2.00;;
23384;SDS011;11865;45.394;10.978;2024-01-07T08:09:12;3.33;;;2.13;;
23384;SDS011;11865;45.394;10.978;2024-01-07T08:11:40;11.40;;;6.97;;
23384;SDS011;11865;45.394;10.978;2024-01-07T08:14:07;11.15;;;5.22;;
23384;SDS011;11865;45.394;10.978;2024-01-07T08:16:36;12.40;;;8.35;;
23384;SDS011;11865;45.394;10.978;2024-01-07T08:19:03;17.23;;;10.10;;
23384;SDS011;11865;45.394;10.978;2024-01-07T08:21:31;12.65;;;8.10;;
23384;SDS011;11865;45.394;10.978;2024-01-07T08:23:58;16.58;;;9.48;;
23384;SDS011;11865;45.394;10.978;2024-01-07T08:26:26;7.97;;;4.43;;
23384;SDS011;11865;45.394;10.978;2024-01-07T08:28:54;10.32;;;5.40;;
23384;SDS011;11865;45.394;10.978;2024-01-07T08:31:21;7.75;;;4.60;;
23384;SDS011;11865;45.394;10.978;2024-01-07T08:33:49;8.00;;;2.50;;
23384;SDS011;11865;45.394;10.978;2024-01-07T08:36:17;4.85;;;2.45;;
23384;SDS011;11865;45.394;10.978;2024-01-07T08:38:45;4.28;;;2.28;;
23384;SDS011;11865;45.394;10.978;2024-01-07T08:41:16;11.15;;;5.28;;
23384;SDS011;11865;45.394;10.978;2024-01-07T08:43:44;7.30;;;4.47;;
23384;SDS011;11865;45.394;10.978;2024-01-07T08:46:14;7.05;;;3.85;;
23384;SDS011;11865;45.394;10.978;2024-01-07T08:48:42;7.18;;;3.75;;
23384;SDS011;11865;45.394;10.978;2024-01-07T08:51:10;9.82;;;5.15;;
23384;SDS011;11865;45.394;10.978;2024-01-07T08:53:38;11.52;;;3.85;;
23384;SDS011;11865;45.394;10.978;2024-01-07T08:56:06;8.85;;;3.55;;
23384;SDS011;11865;45.394;10.978;2024-01-07T08:58:34;6.90;;;3.58;;
23384;SDS011;11865;45.394;10.978;2024-01-07T09:01:01;5.80;;;3.58;;
23384;SDS011;11865;45.394;10.978;2024-01-07T09:03:29;7.68;;;3.50;;
23384;SDS011;11865;45.394;10.978;2024-01-07T09:05:57;9.90;;;3.90;;
23384;SDS011;11865;45.394;10.978;2024-01-07T09:08:24;7.13;;;3.45;;
23384;SDS011;11865;45.394;10.978;2024-01-07T09:10:52;8.18;;;3.03;;
23384;SDS011;11865;45.394;10.978;2024-01-07T09:13:19;6.35;;;3.40;;
23384;SDS011;11865;45.394;10.978;2024-01-07T09:15:47;6.75;;;2.92;;
23384;SDS011;11865;45.394;10.978;2024-01-07T09:18:15;5.30;;;3.22;;
23384;SDS011;11865;45.394;10.978;2024-01-07T09:20:42;5.15;;;2.85;;
23384;SDS011;11865;45.394;10.978;2024-01-07T09:23:10;5.75;;;3.42;;
23384;SDS011;11865;45.394;10.978;2024-01-07T09:25:37;3.25;;;2.15;;
23384;SDS011;11865;45.394;10.978;2024-01-07T09:28:05;2.75;;;2.17;;
23384;SDS011;11865;45.394;10.978;2024-01-07T09:30:33;4.35;;;2.00;;
23384;SDS011;11865;45.394;10.978;2024-01-07T09:33:00;6.03;;;2.53;;
23384;SDS011;11865;45.394;10.978;2024-01-07T09:35:28;5.70;;;2.65;;
23384;SDS011;11865;45.394;10.978;2024-01-07T09:37:56;4.60;;;2.40;;
23384;SDS011;11865;45.394;10.978;2024-01-07T09:40:23;5.07;;;2.55;;
23384;SDS011;11865;45.394;10.978;2024-01-07T09:42:51;3.30;;;2.28;;
23384;SDS011;11865;45.394;10.978;2024-01-07T09:45:19;3.72;;;2.40;;
23384;SDS011;11865;45.394;10.978;2024-01-07T09:47:49;4.72;;;2.50;;
23384;SDS011;11865;45.394;10.978;2024-01-07T09:50:16;3.97;;;2.42;;
23384;SDS011;11865;45.394;10.978;2024-01-07T09:52:44;3.67;;;2.70;;
23384;SDS011;11865;45.394;10.978;2024-01-07T09:55:17;4.20;;;2.78;;
23384;SDS011;11865;45.394;10.978;2024-01-07T09:57:53;4.32;;;2.92;;
23384;SDS011;11865;45.394;10.978;2024-01-07T10:00:21;5.15;;;3.10;;
23384;SDS011;11865;45.394;10.978;2024-01-07T10:02:48;5.85;;;3.50;;
23384;SDS011;11865;45.394;10.978;2024-01-07T10:05:16;5.22;;;3.20;;
23384;SDS011;11865;45.394;10.978;2024-01-07T10:07:44;6.70;;;3.80;;
23384;SDS011;11865;45.394;10.978;2024-01-07T10:10:12;6.60;;;3.78;;
23384;SDS011;11865;45.394;10.978;2024-01-07T10:12:45;4.75;;;3.35;;
23384;SDS011;11865;45.394;10.978;2024-01-07T10:15:14;6.97;;;2.70;;
23384;SDS011;11865;45.394;10.978;2024-01-07T10:17:41;5.82;;;2.50;;
23384;SDS011;11865;45.394;10.978;2024-01-07T10:20:10;5.53;;;3.13;;
23384;SDS011;11865;45.394;10.978;2024-01-07T10:22:37;6.20;;;3.60;;
23384;SDS011;11865;45.394;10.978;2024-01-07T10:25:06;6.93;;;3.05;;
23384;SDS011;11865;45.394;10.978;2024-01-07T10:27:34;6.65;;;3.20;;
23384;SDS011;11865;45.394;10.978;2024-01-07T10:30:03;4.88;;;2.92;;
23384;SDS011;11865;45.394;10.978;2024-01-07T10:32:31;5.78;;;3.03;;
23384;SDS011;11865;45.394;10.978;2024-01-07T10:35:03;7.07;;;3.08;;
23384;SDS011;11865;45.394;10.978;2024-01-07T10:37:34;3.90;;;2.60;;
23384;SDS011;11865;45.394;10.978;2024-01-07T10:40:01;4.32;;;2.50;;
23384;SDS011;11865;45.394;10.978;2024-01-07T10:42:31;5.85;;;3.20;;
23384;SDS011;11865;45.394;10.978;2024-01-07T10:45:00;3.88;;;2.85;;
23384;SDS011;11865;45.394;10.978;2024-01-07T10:47:29;5.65;;;3.22;;
23384;SDS011;11865;45.394;10.978;2024-01-07T10:49:59;4.45;;;2.90;;
23384;SDS011;11865;45.394;10.978;2024-01-07T10:52:29;6.03;;;3.53;;
23384;SDS011;11865;45.394;10.978;2024-01-07T10:55:03;6.18;;;3.63;;
23384;SDS011;11865;45.394;10.978;2024-01-07T10:57:42;9.38;;;4.63;;
23384;SDS011;11865;45.394;10.978;2024-01-07T11:00:17;11.20;;;5.55;;
23384;SDS011;11865;45.394;10.978;2024-01-07T11:05:27;7.25;;;4.20;;
23384;SDS011;11865;45.394;10.978;2024-01-07T11:07:59;11.23;;;5.70;;
23384;SDS011;11865;45.394;10.978;2024-01-07T11:10:38;8.10;;;4.03;;
23384;SDS011;11865;45.394;10.978;2024-01-07T11:13:37;6.82;;;3.28;;
23384;SDS011;11865;45.394;10.978;2024-01-07T11:16:06;6.97;;;3.00;;
23384;SDS011;11865;45.394;10.978;2024-01-07T11:18:49;4.22;;;2.50;;
23384;SDS011;11865;45.394;10.978;2024-01-07T11:21:21;5.45;;;2.67;;
23384;SDS011;11865;45.394;10.978;2024-01-07T11:23:52;5.07;;;2.25;;
23384;SDS011;11865;45.394;10.978;2024-01-07T11:26:23;3.30;;;1.92;;
23384;SDS011;11865;45.394;10.978;2024-01-07T11:28:55;8.10;;;2.88;;
23384;SDS011;11865;45.394;10.978;2024-01-07T11:34:07;5.13;;;2.30;;
23384;SDS011;11865;45.394;10.978;2024-01-07T11:36:36;6.03;;;2.70;;
23384;SDS011;11865;45.394;10.978;2024-01-07T11:39:04;4.93;;;3.25;;
23384;SDS011;11865;45.394;10.978;2024-01-07T11:41:36;5.15;;;2.95;;
23384;SDS011;11865;45.394;10.978;2024-01-07T11:44:07;5.80;;;3.50;;
23384;SDS011;11865;45.394;10.978;2024-01-07T11:46:38;5.30;;;2.70;;
23384;SDS011;11865;45.394;10.978;2024-01-07T11:49:06;5.88;;;3.22;;
23384;SDS011;11865;45.394;10.978;2024-01-07T11:51:36;6.72;;;3.05;;
23384;SDS011;11865;45.394;10.978;2024-01-07T11:54:05;6.80;;;3.47;;
23384;SDS011;11865;45.394;10.978;2024-01-07T11:56:33;4.97;;;3.33;;
23384;SDS011;11865;45.394;10.978;2024-01-07T11:59:01;6.15;;;3.15;;
23384;SDS011;11865;45.394;10.978;2024-01-07T12:01:29;6.40;;;2.90;;
23384;SDS011;11865;45.394;10.978;2024-01-07T12:03:57;5.90;;;3.20;;
23384;SDS011;11865;45.394;10.978;2024-01-07T12:06:25;4.18;;;2.53;;
23384;SDS011;11865;45.394;10.978;2024-01-07T12:08:53;4.20;;;2.67;;
23384;SDS011;11865;45.394;10.978;2024-01-07T12:11:21;5.18;;;3.35;;
23384;SDS011;11865;45.394;10.978;2024-01-07T12:13:51;4.63;;;3.28;;
23384;SDS011;11865;45.394;10.978;2024-01-07T12:16:22;5.03;;;3.20;;
23384;SDS011;11865;45.394;10.978;2024-01-07T12:18:50;5.28;;;4.10;;
23384;SDS011;11865;45.394;10.978;2024-01-07T12:21:21;5.25;;;4.00;;
23384;SDS011;11865;45.394;10.978;2024-01-07T12:23:49;7.07;;;4.10;;
23384;SDS011;11865;45.394;10.978;2024-01-07T12:26:30;9.98;;;5.22;;
23384;SDS011;11865;45.394;10.978;2024-01-07T12:29:03;11.95;;;6.82;;
23384;SDS011;11865;45.394;10.978;2024-01-07T12:31:34;10.57;;;6.20;;
23384;SDS011;11865;45.394;10.978;2024-01-07T12:34:09;6.43;;;4.13;;
23384;SDS011;11865;45.394;10.978;2024-01-07T12:36:38;5.13;;;3.10;;
23384;SDS011;11865;45.394;10.978;2024-01-07T12:39:07;5.78;;;2.83;;
23384;SDS011;11865;45.394;10.978;2024-01-07T12:41:37;8.23;;;4.13;;
23384;SDS011;11865;45.394;10.978;2024-01-07T12:44:07;7.32;;;3.97;;
23384;SDS011;11865;45.394;10.978;2024-01-07T12:46:35;6.38;;;3.20;;
23384;SDS011;11865;45.394;10.978;2024-01-07T12:49:03;5.28;;;2.60;;
23384;SDS011;11865;45.394;10.978;2024-01-07T12:51:31;9.02;;;3.75;;
23384;SDS011;11865;45.394;10.978;2024-01-07T12:54:00;7.35;;;3.20;;
23384;SDS011;11865;45.394;10.978;2024-01-07T12:56:30;5.70;;;3.22;;
23384;SDS011;11865;45.394;10.978;2024-01-07T12:58:58;2.75;;;1.77;;
23384;SDS011;11865;45.394;10.978;2024-01-07T13:01:26;5.93;;;2.55;;
23384;SDS011;11865;45.394;10.978;2024-01-07T13:03:54;3.75;;;2.30;;
23384;SDS011;11865;45.394;10.978;2024-01-07T13:06:22;3.97;;;2.50;;
23384;SDS011;11865;45.394;10.978;2024-01-07T13:08:50;5.70;;;3.22;;
23384;SDS011;11865;45.394;10.978;2024-01-07T13:11:17;6.28;;;3.15;;
23384;SDS011;11865;45.394;10.978;2024-01-07T13:13:45;6.43;;;3.10;;
23384;SDS011;11865;45.394;10.978;2024-01-07T13:16:13;5.55;;;3.08;;
23384;SDS011;11865;45.394;10.978;2024-01-07T13:18:41;5.85;;;3.40;;
23384;SDS011;11865;45.394;10.978;2024-01-07T13:21:08;7.30;;;4.18;;
23384;SDS011;11865;45.394;10.978;2024-01-07T13:23:36;5.38;;;3.35;;
23384;SDS011;11865;45.394;10.978;2024-01-07T13:26:04;4.32;;;2.33;;
23384;SDS011;11865;45.394;10.978;2024-01-07T13:28:33;8.02;;;2.40;;
23384;SDS011;11865;45.394;10.978;2024-01-07T13:31:00;5.38;;;2.33;;
23384;SDS011;11865;45.394;10.978;2024-01-07T13:33:30;4.78;;;2.15;;
23384;SDS011;11865;45.394;10.978;2024-01-07T13:35:58;7.60;;;1.90;;
23384;SDS011;11865;45.394;10.978;2024-01-07T13:38:25;2.78;;;2.10;;
23384;SDS011;11865;45.394;10.978;2024-01-07T13:41:04;7.20;;;2.63;;
23384;SDS011;11865;45.394;10.978;2024-01-07T13:43:34;5.95;;;2.20;;
23384;SDS011;11865;45.394;10.978;2024-01-07T13:46:07;2.72;;;2.28;;
23384;SDS011;11865;45.394;10.978;2024-01-07T13:48:40;6.85;;;2.88;;
23384;SDS011;11865;45.394;10.978;2024-01-07T13:51:13;6.72;;;3.35;;
23384;SDS011;11865;45.394;10.978;2024-01-07T13:53:40;6.72;;;3.15;;
23384;SDS011;11865;45.394;10.978;2024-01-07T13:56:12;6.90;;;3.35;;
23384;SDS011;11865;45.394;10.978;2024-01-07T13:58:42;9.13;;;3.47;;
23384;SDS011;11865;45.394;10.978;2024-01-07T14:01:16;5.60;;;3.40;;
23384;SDS011;11865;45.394;10.978;2024-01-07T14:03:44;6.40;;;3.08;;
23384;SDS011;11865;45.394;10.978;2024-01-07T14:06:12;5.03;;;2.75;;
23384;SDS011;11865;45.394;10.978;2024-01-07T14:08:42;5.88;;;2.90;;
23384;SDS011;11865;45.394;10.978;2024-01-07T14:11:10;5.38;;;3.10;;
23384;SDS011;11865;45.394;10.978;2024-01-07T14:13:37;21.20;;;7.93;;
23384;SDS011;11865;45.394;10.978;2024-01-07T14:16:05;17.73;;;8.07;;
23384;SDS011;11865;45.394;10.978;2024-01-07T14:18:33;12.43;;;5.32;;
23384;SDS011;11865;45.394;10.978;2024-01-07T14:21:01;8.18;;;2.88;;
23384;SDS011;11865;45.394;10.978;2024-01-07T14:23:28;4.43;;;2.50;;
23384;SDS011;11865;45.394;10.978;2024-01-07T14:25:58;3.17;;;2.55;;
23384;SDS011;11865;45.394;10.978;2024-01-07T14:28:25;4.55;;;2.75;;
23384;SDS011;11865;45.394;10.978;2024-01-07T14:30:53;5.80;;;3.20;;
23384;SDS011;11865;45.394;10.978;2024-01-07T14:33:21;5.95;;;3.22;;
23384;SDS011;11865;45.394;10.978;2024-01-07T14:35:48;5.10;;;2.53;;
23384;SDS011;11865;45.394;10.978;2024-01-07T14:38:16;3.53;;;2.50;;
23384;SDS011;11865;45.394;10.978;2024-01-07T14:40:43;2.95;;;2.13;;
23384;SDS011;11865;45.394;10.978;2024-01-07T14:43:13;6.57;;;4.00;;
23384;SDS011;11865;45.394;10.978;2024-01-07T14:45:41;7.65;;;4.18;;